sensor_id;sensor_type;location;lat;lon;timestamp;pressure;altitude;pressure_sealevel;temperature
23992;BMP280;12205;50.600;4.608;2022-12-07T00:00:59;100036.16;;;5.19
23992;BMP280;12205;50.600;4.608;2022-12-07T00:03:30;100030.84;;;5.19
23992;BMP280;12205;50.600;4.608;2022-12-07T00:05:57;100019.59;;;5.22
23992;BMP280;12205;50.600;4.608;2022-12-07T00:08:25;100023.34;;;5.21
23992;BMP280;12205;50.600;4.608;2022-12-07T00:10:52;100002.78;;;5.18
23992;BMP280;12205;50.600;4.608;2022-12-07T00:13:19;100002.78;;;5.18
23992;BMP280;12205;50.600;4.608;2022-12-07T00:15:47;99994.69;;;5.23
23992;BMP280;12205;50.600;4.608;2022-12-07T00:18:15;99994.22;;;5.21
23992;BMP280;12205;50.600;4.608;2022-12-07T00:20:42;99999.34;;;5.26
23992;BMP280;12205;50.600;4.608;2022-12-07T00:23:09;100001.16;;;5.34
23992;BMP280;12205;50.600;4.608;2022-12-07T00:25:37;99999.47;;;5.30
23992;BMP280;12205;50.600;4.608;2022-12-07T00:28:04;100004.00;;;5.29
23992;BMP280;12205;50.600;4.608;2022-12-07T00:30:32;100007.56;;;5.33
23992;BMP280;12205;50.600;4.608;2022-12-07T00:32:59;100011.75;;;5.34
23992;BMP280;12205;50.600;4.608;2022-12-07T00:35:28;100011.53;;;5.39
23992;BMP280;12205;50.600;4.608;2022-12-07T00:37:55;100016.41;;;5.37
23992;BMP280;12205;50.600;4.608;2022-12-07T00:40:23;100025.44;;;5.36
23992;BMP280;12205;50.600;4.608;2022-12-07T00:42:50;100031.41;;;5.33
23992;BMP280;12205;50.600;4.608;2022-12-07T00:45:17;100046.19;;;5.34
23992;BMP280;12205;50.600;4.608;2022-12-07T00:47:44;100044.31;;;5.35
23992;BMP280;12205;50.600;4.608;2022-12-07T00:50:11;100037.59;;;5.37
23992;BMP280;12205;50.600;4.608;2022-12-07T00:52:40;100059.44;;;5.34
23992;BMP280;12205;50.600;4.608;2022-12-07T00:55:08;100054.50;;;5.24
23992;BMP280;12205;50.600;4.608;2022-12-07T00:57:35;100058.56;;;5.21
23992;BMP280;12205;50.600;4.608;2022-12-07T01:00:02;100060.19;;;5.14
23992;BMP280;12205;50.600;4.608;2022-12-07T01:02:30;100062.34;;;5.12
23992;BMP280;12205;50.600;4.608;2022-12-07T01:04:57;100048.66;;;5.10
23992;BMP280;12205;50.600;4.608;2022-12-07T01:07:24;100050.84;;;5.08
23992;BMP280;12205;50.600;4.608;2022-12-07T01:09:52;100047.09;;;5.09
23992;BMP280;12205;50.600;4.608;2022-12-07T01:12:20;100051.94;;;5.07
23992;BMP280;12205;50.600;4.608;2022-12-07T01:14:47;100048.66;;;5.10
23992;BMP280;12205;50.600;4.608;2022-12-07T01:17:14;100059.88;;;5.07
23992;BMP280;12205;50.600;4.608;2022-12-07T01:19:41;100062.53;;;5.07
23992;BMP280;12205;50.600;4.608;2022-12-07T01:22:08;100048.38;;;5.02
23992;BMP280;12205;50.600;4.608;2022-12-07T01:24:36;100056.13;;;5.08
23992;BMP280;12205;50.600;4.608;2022-12-07T01:27:04;100051.94;;;5.07
23992;BMP280;12205;50.600;4.608;2022-12-07T01:29:31;100069.84;;;5.10
23992;BMP280;12205;50.600;4.608;2022-12-07T01:31:58;100074.84;;;5.02
23992;BMP280;12205;50.600;4.608;2022-12-07T01:34:26;100073.44;;;5.05
23992;BMP280;12205;50.600;4.608;2022-12-07T01:36:53;100082.31;;;5.00
23992;BMP280;12205;50.600;4.608;2022-12-07T01:39:20;100092.28;;;5.03
23992;BMP280;12205;50.600;4.608;2022-12-07T01:41:47;100093.84;;;5.04
23992;BMP280;12205;50.600;4.608;2022-12-07T01:44:21;100091.03;;;5.10
23992;BMP280;12205;50.600;4.608;2022-12-07T01:46:50;100093.38;;;5.11
23992;BMP280;12205;50.600;4.608;2022-12-07T01:49:26;100096.34;;;5.10
23992;BMP280;12205;50.600;4.608;2022-12-07T01:52:04;100094.16;;;5.12
23992;BMP280;12205;50.600;4.608;2022-12-07T01:54:35;100094.44;;;5.19
23992;BMP280;12205;50.600;4.608;2022-12-07T01:57:04;100092.06;;;5.17
23992;BMP280;12205;50.600;4.608;2022-12-07T01:59:34;100098.16;;;5.18
23992;BMP280;12205;50.600;4.608;2022-12-07T02:02:10;100107.97;;;5.17
23992;BMP280;12205;50.600;4.608;2022-12-07T02:04:39;100093.97;;;5.17
23992;BMP280;12205;50.600;4.608;2022-12-07T02:07:07;100089.66;;;5.12
23992;BMP280;12205;50.600;4.608;2022-12-07T02:09:34;100079.50;;;5.14
23992;BMP280;12205;50.600;4.608;2022-12-07T02:12:02;100074.50;;;5.13
23992;BMP280;12205;50.600;4.608;2022-12-07T02:14:29;100059.25;;;5.10
23992;BMP280;12205;50.600;4.608;2022-12-07T02:17:11;100052.88;;;5.11
23992;BMP280;12205;50.600;4.608;2022-12-07T02:20:11;100049.91;;;5.03
23992;BMP280;12205;50.600;4.608;2022-12-07T02:23:07;100041.50;;;5.01
23992;BMP280;12205;50.600;4.608;2022-12-07T02:26:09;100032.81;;;4.92
23992;BMP280;12205;50.600;4.608;2022-12-07T02:29:14;100049.66;;;4.96
23992;BMP280;12205;50.600;4.608;2022-12-07T02:31:53;100053.38;;;4.95
23992;BMP280;12205;50.600;4.608;2022-12-07T02:34:34;100060.25;;;4.96
23992;BMP280;12205;50.600;4.608;2022-12-07T02:37:18;100070.50;;;5.07
23992;BMP280;12205;50.600;4.608;2022-12-07T02:39:51;100067.66;;;5.12
23992;BMP280;12205;50.600;4.608;2022-12-07T02:42:28;100071.69;;;5.18
23992;BMP280;12205;50.600;4.608;2022-12-07T02:45:00;100062.63;;;5.19
23992;BMP280;12205;50.600;4.608;2022-12-07T02:47:29;100063.56;;;5.23
23992;BMP280;12205;50.600;4.608;2022-12-07T02:49:58;100078.53;;;5.19
23992;BMP280;12205;50.600;4.608;2022-12-07T02:52:26;100071.81;;;5.21
23992;BMP280;12205;50.600;4.608;2022-12-07T02:54:53;100070.28;;;5.20
23992;BMP280;12205;50.600;4.608;2022-12-07T02:57:37;100073.06;;;5.24
23992;BMP280;12205;50.600;4.608;2022-12-07T03:00:14;100066.66;;;5.25
23992;BMP280;12205;50.600;4.608;2022-12-07T03:02:54;100067.31;;;5.22
23992;BMP280;12205;50.600;4.608;2022-12-07T03:05:38;100068.69;;;5.28
23992;BMP280;12205;50.600;4.608;2022-12-07T03:08:21;100074.44;;;5.30
23992;BMP280;12205;50.600;4.608;2022-12-07T03:10:58;100074.91;;;5.32
23992;BMP280;12205;50.600;4.608;2022-12-07T03:13:33;100068.94;;;5.35
23992;BMP280;12205;50.600;4.608;2022-12-07T03:16:11;100075.16;;;5.39
23992;BMP280;12205;50.600;4.608;2022-12-07T03:18:46;100061.28;;;5.43
23992;BMP280;12205;50.600;4.608;2022-12-07T03:21:19;100067.50;;;5.47
23992;BMP280;12205;50.600;4.608;2022-12-07T03:23:53;100051.63;;;5.47
23992;BMP280;12205;50.600;4.608;2022-12-07T03:26:24;100061.19;;;5.60
23992;BMP280;12205;50.600;4.608;2022-12-07T03:28:58;100059.88;;;5.66
23992;BMP280;12205;50.600;4.608;2022-12-07T03:31:32;100064.53;;;5.69
23992;BMP280;12205;50.600;4.608;2022-12-07T03:34:05;100059.44;;;5.64
23992;BMP280;12205;50.600;4.608;2022-12-07T03:36:40;100076.47;;;5.63
23992;BMP280;12205;50.600;4.608;2022-12-07T03:39:22;100072.25;;;5.62
23992;BMP280;12205;50.600;4.608;2022-12-07T03:41:51;100076.47;;;5.63
23992;BMP280;12205;50.600;4.608;2022-12-07T03:44:20;100067.06;;;5.66
23992;BMP280;12205;50.600;4.608;2022-12-07T03:47:01;100076.47;;;5.63
23992;BMP280;12205;50.600;4.608;2022-12-07T03:49:37;100081.09;;;5.66
23992;BMP280;12205;50.600;4.608;2022-12-07T03:52:17;100082.66;;;5.67
23992;BMP280;12205;50.600;4.608;2022-12-07T03:54:52;100078.00;;;5.64
23992;BMP280;12205;50.600;4.608;2022-12-07T03:57:24;100082.53;;;5.64
23992;BMP280;12205;50.600;4.608;2022-12-07T03:59:54;100090.81;;;5.62
23992;BMP280;12205;50.600;4.608;2022-12-07T04:02:25;100091.91;;;5.61
23992;BMP280;12205;50.600;4.608;2022-12-07T04:04:53;100095.97;;;5.59
23992;BMP280;12205;50.600;4.608;2022-12-07T04:07:20;100088.47;;;5.61
23992;BMP280;12205;50.600;4.608;2022-12-07T04:09:48;100090.38;;;5.51
23992;BMP280;12205;50.600;4.608;2022-12-07T04:12:15;100094.91;;;5.51
23992;BMP280;12205;50.600;4.608;2022-12-07T04:14:42;100090.13;;;5.44
23992;BMP280;12205;50.600;4.608;2022-12-07T04:17:09;100094.63;;;5.44
23992;BMP280;12205;50.600;4.608;2022-12-07T04:19:38;100084.94;;;5.48
23992;BMP280;12205;50.600;4.608;2022-12-07T04:22:06;100093.38;;;5.50
23992;BMP280;12205;50.600;4.608;2022-12-07T04:24:33;100085.75;;;5.48
23992;BMP280;12205;50.600;4.608;2022-12-07T04:27:01;100089.16;;;5.49
23992;BMP280;12205;50.600;4.608;2022-12-07T04:29:28;100068.13;;;5.44
23992;BMP280;12205;50.600;4.608;2022-12-07T04:31:55;100082.78;;;5.50
23992;BMP280;12205;50.600;4.608;2022-12-07T04:34:22;100073.72;;;5.51
23992;BMP280;12205;50.600;4.608;2022-12-07T04:36:51;100066.88;;;5.50
23992;BMP280;12205;50.600;4.608;2022-12-07T04:39:22;100084.13;;;5.56
23992;BMP280;12205;50.600;4.608;2022-12-07T04:41:50;100084.59;;;5.58
23992;BMP280;12205;50.600;4.608;2022-12-07T04:44:18;100089.75;;;5.54
23992;BMP280;12205;50.600;4.608;2022-12-07T04:46:46;100067.84;;;5.36
23992;BMP280;12205;50.600;4.608;2022-12-07T04:49:14;100091.38;;;5.47
23992;BMP280;12205;50.600;4.608;2022-12-07T04:51:42;100083.91;;;5.40
23992;BMP280;12205;50.600;4.608;2022-12-07T04:54:12;100091.53;;;5.42
23992;BMP280;12205;50.600;4.608;2022-12-07T04:56:40;100094.81;;;5.38
23992;BMP280;12205;50.600;4.608;2022-12-07T04:59:08;100101.84;;;5.34
23992;BMP280;12205;50.600;4.608;2022-12-07T05:01:36;100095.50;;;5.27
23992;BMP280;12205;50.600;4.608;2022-12-07T05:04:03;100105.31;;;5.26
23992;BMP280;12205;50.600;4.608;2022-12-07T05:06:30;100104.84;;;5.24
23992;BMP280;12205;50.600;4.608;2022-12-07T05:08:57;100109.69;;;5.22
23992;BMP280;12205;50.600;4.608;2022-12-07T05:11:26;100106.13;;;5.18
23992;BMP280;12205;50.600;4.608;2022-12-07T05:14:10;100105.03;;;5.19
23992;BMP280;12205;50.600;4.608;2022-12-07T05:16:38;100102.06;;;5.20
23992;BMP280;12205;50.600;4.608;2022-12-07T05:19:06;100088.50;;;5.22
23992;BMP280;12205;50.600;4.608;2022-12-07T05:21:33;100097.72;;;5.16
23992;BMP280;12205;50.600;4.608;2022-12-07T05:24:01;100091.31;;;5.17
23992;BMP280;12205;50.600;4.608;2022-12-07T05:26:31;100090.09;;;5.14
23992;BMP280;12205;50.600;4.608;2022-12-07T05:28:58;100073.75;;;5.03
23992;BMP280;12205;50.600;4.608;2022-12-07T05:31:26;100077.63;;;5.15
23992;BMP280;12205;50.600;4.608;2022-12-07T05:33:54;100079.19;;;5.16
23992;BMP280;12205;50.600;4.608;2022-12-07T05:36:21;100066.38;;;5.18
23992;BMP280;12205;50.600;4.608;2022-12-07T05:38:49;100066.22;;;5.23
23992;BMP280;12205;50.600;4.608;2022-12-07T05:41:18;100071.69;;;5.18
23992;BMP280;12205;50.600;4.608;2022-12-07T05:44:05;100056.13;;;5.08
23992;BMP280;12205;50.600;4.608;2022-12-07T05:46:32;100049.75;;;5.09
23992;BMP280;12205;50.600;4.608;2022-12-07T05:49:00;100038.38;;;5.08
23992;BMP280;12205;50.600;4.608;2022-12-07T05:51:27;100036.19;;;5.10
23992;BMP280;12205;50.600;4.608;2022-12-07T05:53:54;100034.94;;;5.08
23992;BMP280;12205;50.600;4.608;2022-12-07T05:56:22;100041.16;;;5.12
23992;BMP280;12205;50.600;4.608;2022-12-07T05:58:50;100041.63;;;5.14
23992;BMP280;12205;50.600;4.608;2022-12-07T06:01:36;100044.13;;;5.10
23992;BMP280;12205;50.600;4.608;2022-12-07T06:04:03;100043.38;;;5.10
23992;BMP280;12205;50.600;4.608;2022-12-07T06:06:31;100050.22;;;5.11
23992;BMP280;12205;50.600;4.608;2022-12-07T06:08:58;100045.06;;;5.14
23992;BMP280;12205;50.600;4.608;2022-12-07T06:11:25;100048.19;;;5.16
23992;BMP280;12205;50.600;4.608;2022-12-07T06:14:10;100043.78;;;5.20
23992;BMP280;12205;50.600;4.608;2022-12-07T06:16:38;100045.31;;;5.21
23992;BMP280;12205;50.600;4.608;2022-12-07T06:19:06;100045.47;;;5.25
23992;BMP280;12205;50.600;4.608;2022-12-07T06:21:33;100046.22;;;5.26
23992;BMP280;12205;50.600;4.608;2022-12-07T06:24:00;100044.19;;;5.31
23992;BMP280;12205;50.600;4.608;2022-12-07T06:26:27;100034.47;;;5.35
23992;BMP280;12205;50.600;4.608;2022-12-07T06:28:55;100048.09;;;5.34
23992;BMP280;12205;50.600;4.608;2022-12-07T06:31:22;100050.38;;;5.35
23992;BMP280;12205;50.600;4.608;2022-12-07T06:33:51;100047.13;;;5.38
23992;BMP280;12205;50.600;4.608;2022-12-07T06:36:18;100049.78;;;5.38
23992;BMP280;12205;50.600;4.608;2022-12-07T06:38:45;100045.09;;;5.35
23992;BMP280;12205;50.600;4.608;2022-12-07T06:41:12;100060.38;;;5.38
23992;BMP280;12205;50.600;4.608;2022-12-07T06:43:39;100067.22;;;5.39
23992;BMP280;12205;50.600;4.608;2022-12-07T06:46:08;100069.41;;;5.37
23992;BMP280;12205;50.600;4.608;2022-12-07T06:48:35;100060.09;;;5.31
23992;BMP280;12205;50.600;4.608;2022-12-07T06:51:04;100064.75;;;5.34
23992;BMP280;12205;50.600;4.608;2022-12-07T06:53:31;100054.28;;;5.38
23992;BMP280;12205;50.600;4.608;2022-12-07T06:55:58;100064.75;;;5.34
23992;BMP280;12205;50.600;4.608;2022-12-07T06:58:26;100063.84;;;5.30
23992;BMP280;12205;50.600;4.608;2022-12-07T07:00:53;100064.63;;;5.31
23992;BMP280;12205;50.600;4.608;2022-12-07T07:03:21;100069.91;;;5.31
23992;BMP280;12205;50.600;4.608;2022-12-07T07:05:48;100072.72;;;5.26
23992;BMP280;12205;50.600;4.608;2022-12-07T07:08:17;100069.03;;;5.18
23992;BMP280;12205;50.600;4.608;2022-12-07T07:10:44;100051.16;;;5.15
23992;BMP280;12205;50.600;4.608;2022-12-07T07:13:11;100052.69;;;5.16
23992;BMP280;12205;50.600;4.608;2022-12-07T07:15:38;100058.88;;;5.20
23992;BMP280;12205;50.600;4.608;2022-12-07T07:18:06;100064.97;;;5.20
23992;BMP280;12205;50.600;4.608;2022-12-07T07:20:33;100065.75;;;5.21
23992;BMP280;12205;50.600;4.608;2022-12-07T07:23:00;100064.97;;;5.20
23992;BMP280;12205;50.600;4.608;2022-12-07T07:25:29;100066.50;;;5.21
23992;BMP280;12205;50.600;4.608;2022-12-07T07:27:56;100079.75;;;5.21
23992;BMP280;12205;50.600;4.608;2022-12-07T07:30:24;100077.09;;;5.21
23992;BMP280;12205;50.600;4.608;2022-12-07T07:32:56;100074.63;;;5.25
23992;BMP280;12205;50.600;4.608;2022-12-07T07:35:23;100059.81;;;5.24
23992;BMP280;12205;50.600;4.608;2022-12-07T07:37:50;100074.16;;;5.23
23992;BMP280;12205;50.600;4.608;2022-12-07T07:40:18;100067.31;;;5.22
23992;BMP280;12205;50.600;4.608;2022-12-07T07:42:49;100064.97;;;5.20
23992;BMP280;12205;50.600;4.608;2022-12-07T07:45:16;100066.66;;;5.25
23992;BMP280;12205;50.600;4.608;2022-12-07T07:47:44;100066.94;;;5.32
23992;BMP280;12205;50.600;4.608;2022-12-07T07:50:11;100064.28;;;5.32
23992;BMP280;12205;50.600;4.608;2022-12-07T07:52:39;100057.25;;;5.36
23992;BMP280;12205;50.600;4.608;2022-12-07T07:55:07;100053.50;;;5.37
23992;BMP280;12205;50.600;4.608;2022-12-07T07:57:35;100066.59;;;5.43
23992;BMP280;12205;50.600;4.608;2022-12-07T08:00:07;100071.25;;;5.46
23992;BMP280;12205;50.600;4.608;2022-12-07T08:02:38;100075.47;;;5.47
23992;BMP280;12205;50.600;4.608;2022-12-07T08:05:07;100084.19;;;5.47
23992;BMP280;12205;50.600;4.608;2022-12-07T08:07:34;100095.25;;;5.49
23992;BMP280;12205;50.600;4.608;2022-12-07T08:10:01;100086.22;;;5.42
23992;BMP280;12205;50.600;4.608;2022-12-07T08:12:28;100092.47;;;5.46
23992;BMP280;12205;50.600;4.608;2022-12-07T08:14:55;100094.78;;;5.47
23992;BMP280;12205;50.600;4.608;2022-12-07T08:17:24;100091.06;;;5.48
23992;BMP280;12205;50.600;4.608;2022-12-07T08:19:51;100094.03;;;5.47
23992;BMP280;12205;50.600;4.608;2022-12-07T08:22:18;100103.50;;;5.48
23992;BMP280;12205;50.600;4.608;2022-12-07T08:24:45;100094.78;;;5.47
23992;BMP280;12205;50.600;4.608;2022-12-07T08:27:13;100107.72;;;5.49
23992;BMP280;12205;50.600;4.608;2022-12-07T08:29:40;100112.56;;;5.47
23992;BMP280;12205;50.600;4.608;2022-12-07T08:32:07;100103.06;;;5.46
23992;BMP280;12205;50.600;4.608;2022-12-07T08:34:36;100106.16;;;5.48
23992;BMP280;12205;50.600;4.608;2022-12-07T08:37:04;100109.69;;;5.52
23992;BMP280;12205;50.600;4.608;2022-12-07T08:39:31;100098.00;;;5.53
23992;BMP280;12205;50.600;4.608;2022-12-07T08:41:58;100107.28;;;5.47
23992;BMP280;12205;50.600;4.608;2022-12-07T08:44:26;100116.56;;;5.53
23992;BMP280;12205;50.600;4.608;2022-12-07T08:46:58;100114.72;;;5.53
23992;BMP280;12205;50.600;4.608;2022-12-07T08:49:33;100105.31;;;5.56
23992;BMP280;12205;50.600;4.608;2022-12-07T08:52:05;100109.84;;;5.55
23992;BMP280;12205;50.600;4.608;2022-12-07T08:54:36;100110.50;;;5.52
23992;BMP280;12205;50.600;4.608;2022-12-07T08:57:06;100109.84;;;5.55
23992;BMP280;12205;50.600;4.608;2022-12-07T08:59:35;100106.44;;;5.55
23992;BMP280;12205;50.600;4.608;2022-12-07T09:02:04;100109.09;;;5.55
23992;BMP280;12205;50.600;4.608;2022-12-07T09:04:31;100108.63;;;5.53
23992;BMP280;12205;50.600;4.608;2022-12-07T09:06:59;100108.53;;;5.49
23992;BMP280;12205;50.600;4.608;2022-12-07T09:09:27;100109.53;;;5.57
23992;BMP280;12205;50.600;4.608;2022-12-07T09:11:55;100104.88;;;5.54
23992;BMP280;12205;50.600;4.608;2022-12-07T09:14:22;100113.75;;;5.58
23992;BMP280;12205;50.600;4.608;2022-12-07T09:16:50;100106.72;;;5.62
23992;BMP280;12205;50.600;4.608;2022-12-07T09:19:17;100110.72;;;5.68
23992;BMP280;12205;50.600;4.608;2022-12-07T09:21:44;100098.06;;;5.74
23992;BMP280;12205;50.600;4.608;2022-12-07T09:24:12;100100.53;;;5.79
23992;BMP280;12205;50.600;4.608;2022-12-07T09:26:40;100100.47;;;5.88
23992;BMP280;12205;50.600;4.608;2022-12-07T09:29:07;100091.69;;;5.96
23992;BMP280;12205;50.600;4.608;2022-12-07T09:31:36;100075.22;;;6.03
23992;BMP280;12205;50.600;4.608;2022-12-07T09:34:04;100083.34;;;6.06
23992;BMP280;12205;50.600;4.608;2022-12-07T09:36:33;100089.66;;;6.14
23992;BMP280;12205;50.600;4.608;2022-12-07T09:39:01;100089.13;;;6.21
23992;BMP280;12205;50.600;4.608;2022-12-07T09:41:32;100085.53;;;6.25
23992;BMP280;12205;50.600;4.608;2022-12-07T09:44:07;100073.59;;;6.32
23992;BMP280;12205;50.600;4.608;2022-12-07T09:46:40;100080.59;;;6.36
23992;BMP280;12205;50.600;4.608;2022-12-07T09:49:13;100094.97;;;6.35
23992;BMP280;12205;50.600;4.608;2022-12-07T09:51:41;100109.00;;;6.36
23992;BMP280;12205;50.600;4.608;2022-12-07T09:54:13;100109.34;;;6.34
23992;BMP280;12205;50.600;4.608;2022-12-07T09:56:42;100113.56;;;6.35
23992;BMP280;12205;50.600;4.608;2022-12-07T09:59:16;100117.19;;;6.43
23992;BMP280;12205;50.600;4.608;2022-12-07T10:01:47;100107.19;;;6.49
23992;BMP280;12205;50.600;4.608;2022-12-07T10:04:18;100109.84;;;6.49
23992;BMP280;12205;50.600;4.608;2022-12-07T10:06:47;100103.44;;;6.62
23992;BMP280;12205;50.600;4.608;2022-12-07T10:09:19;100117.81;;;6.61
23992;BMP280;12205;50.600;4.608;2022-12-07T10:12:05;100108.97;;;6.69
23992;BMP280;12205;50.600;4.608;2022-12-07T10:14:38;100107.25;;;6.73
23992;BMP280;12205;50.600;4.608;2022-12-07T10:17:31;100100.81;;;6.74
23992;BMP280;12205;50.600;4.608;2022-12-07T10:20:22;100090.41;;;6.81
23992;BMP280;12205;50.600;4.608;2022-12-07T10:22:59;100098.19;;;6.87
23992;BMP280;12205;50.600;4.608;2022-12-07T10:25:31;100093.56;;;6.96
23992;BMP280;12205;50.600;4.608;2022-12-07T10:28:13;100084.25;;;7.02
23992;BMP280;12205;50.600;4.608;2022-12-07T10:30:59;100068.56;;;7.09
23992;BMP280;12205;50.600;4.608;2022-12-07T10:33:37;100077.63;;;7.08
23992;BMP280;12205;50.600;4.608;2022-12-07T10:36:22;100094.47;;;7.12
23992;BMP280;12205;50.600;4.608;2022-12-07T10:38:52;100115.72;;;7.12
23992;BMP280;12205;50.600;4.608;2022-12-07T10:41:19;100100.88;;;7.24
23992;BMP280;12205;50.600;4.608;2022-12-07T10:43:50;100140.00;;;7.23
23992;BMP280;12205;50.600;4.608;2022-12-07T10:46:55;100153.16;;;7.32
23992;BMP280;12205;50.600;4.608;2022-12-07T10:49:55;100163.81;;;7.32
23992;BMP280;12205;50.600;4.608;2022-12-07T10:52:45;100171.13;;;7.35
23992;BMP280;12205;50.600;4.608;2022-12-07T10:55:23;100147.19;;;7.47
23992;BMP280;12205;50.600;4.608;2022-12-07T10:58:16;100137.22;;;7.57
23992;BMP280;12205;50.600;4.608;2022-12-07T11:01:00;100165.59;;;7.52
23992;BMP280;12205;50.600;4.608;2022-12-07T11:03:57;100155.16;;;7.60
23992;BMP280;12205;50.600;4.608;2022-12-07T11:06:35;100171.91;;;7.60
23992;BMP280;12205;50.600;4.608;2022-12-07T11:09:35;100153.88;;;7.66
23992;BMP280;12205;50.600;4.608;2022-12-07T11:12:11;100146.97;;;7.65
23992;BMP280;12205;50.600;4.608;2022-12-07T11:14:51;100159.81;;;7.63
23992;BMP280;12205;50.600;4.608;2022-12-07T11:17:29;100158.38;;;7.65
23992;BMP280;12205;50.600;4.608;2022-12-07T11:20:15;100159.25;;;7.69
23992;BMP280;12205;50.600;4.608;2022-12-07T11:22:57;100168.47;;;7.72
23992;BMP280;12205;50.600;4.608;2022-12-07T11:25:32;100169.03;;;7.65
23992;BMP280;12205;50.600;4.608;2022-12-07T11:28:24;100171.13;;;7.60
23992;BMP280;12205;50.600;4.608;2022-12-07T11:31:05;100169.81;;;7.66
23992;BMP280;12205;50.600;4.608;2022-12-07T11:33:39;100166.69;;;7.64
23992;BMP280;12205;50.600;4.608;2022-12-07T11:36:30;100187.97;;;7.51
23992;BMP280;12205;50.600;4.608;2022-12-07T11:39:02;100180.66;;;7.48
23992;BMP280;12205;50.600;4.608;2022-12-07T11:41:35;100151.41;;;7.61
23992;BMP280;12205;50.600;4.608;2022-12-07T11:44:07;100165.47;;;7.61
23992;BMP280;12205;50.600;4.608;2022-12-07T11:46:49;100169.38;;;7.51
23992;BMP280;12205;50.600;4.608;2022-12-07T11:49:26;100164.03;;;7.39
23992;BMP280;12205;50.600;4.608;2022-12-07T11:52:02;100145.00;;;7.49
23992;BMP280;12205;50.600;4.608;2022-12-07T11:54:35;100141.09;;;7.59
23992;BMP280;12205;50.600;4.608;2022-12-07T11:57:18;100136.13;;;7.58
23992;BMP280;12205;50.600;4.608;2022-12-07T11:59:50;100139.00;;;7.52
23992;BMP280;12205;50.600;4.608;2022-12-07T12:02:24;100114.84;;;7.58
23992;BMP280;12205;50.600;4.608;2022-12-07T12:05:02;100130.56;;;7.50
23992;BMP280;12205;50.600;4.608;2022-12-07T12:07:34;100115.75;;;7.37
23992;BMP280;12205;50.600;4.608;2022-12-07T12:10:15;100102.97;;;7.43
23992;BMP280;12205;50.600;4.608;2022-12-07T12:13:24;100112.94;;;7.46
23992;BMP280;12205;50.600;4.608;2022-12-07T12:16:43;100109.44;;;7.29
23992;BMP280;12205;50.600;4.608;2022-12-07T12:19:26;100089.03;;;7.33
23992;BMP280;12205;50.600;4.608;2022-12-07T12:22:01;100094.91;;;7.27
23992;BMP280;12205;50.600;4.608;2022-12-07T12:24:33;100087.41;;;7.29
23992;BMP280;12205;50.600;4.608;2022-12-07T12:27:06;100078.28;;;7.42
23992;BMP280;12205;50.600;4.608;2022-12-07T12:29:35;100080.38;;;7.49
23992;BMP280;12205;50.600;4.608;2022-12-07T12:32:14;100094.00;;;7.47
23992;BMP280;12205;50.600;4.608;2022-12-07T12:35:01;100089.56;;;7.51
23992;BMP280;12205;50.600;4.608;2022-12-07T12:37:43;100093.78;;;7.65
23992;BMP280;12205;50.600;4.608;2022-12-07T12:43:52;100093.09;;;7.56
23992;BMP280;12205;50.600;4.608;2022-12-07T12:46:51;100086.91;;;7.51
23992;BMP280;12205;50.600;4.608;2022-12-07T12:49:40;100076.13;;;7.60
23992;BMP280;12205;50.600;4.608;2022-12-07T12:52:55;100081.59;;;7.64
23992;BMP280;12205;50.600;4.608;2022-12-07T13:29:25;100079.13;;;7.59
23992;BMP280;12205;50.600;4.608;2022-12-07T13:31:56;100069.38;;;7.63
23992;BMP280;12205;50.600;4.608;2022-12-07T13:34:31;100078.94;;;7.64
23992;BMP280;12205;50.600;4.608;2022-12-07T13:37:01;100059.41;;;7.60
23992;BMP280;12205;50.600;4.608;2022-12-07T13:39:29;100057.00;;;7.54
23992;BMP280;12205;50.600;4.608;2022-12-07T13:41:58;100068.31;;;7.51
23992;BMP280;12205;50.600;4.608;2022-12-07T13:44:34;100058.66;;;7.59
23992;BMP280;12205;50.600;4.608;2022-12-07T13:47:09;100056.31;;;7.58
23992;BMP280;12205;50.600;4.608;2022-12-07T13:49:48;100042.69;;;7.59
23992;BMP280;12205;50.600;4.608;2022-12-07T13:52:19;100049.66;;;7.64
23992;BMP280;12205;50.600;4.608;2022-12-07T13:54:49;100056.53;;;7.65
23992;BMP280;12205;50.600;4.608;2022-12-07T13:57:17;100072.28;;;7.58
23992;BMP280;12205;50.600;4.608;2022-12-07T13:59:46;100070.31;;;7.42
23992;BMP280;12205;50.600;4.608;2022-12-07T14:02:20;100055.88;;;7.43
23992;BMP280;12205;50.600;4.608;2022-12-07T14:04:50;100060.81;;;7.41
23992;BMP280;12205;50.600;4.608;2022-12-07T14:07:24;100048.78;;;7.47
23992;BMP280;12205;50.600;4.608;2022-12-07T14:09:58;100045.69;;;7.58
23992;BMP280;12205;50.600;4.608;2022-12-07T14:12:27;100039.50;;;7.53
23992;BMP280;12205;50.600;4.608;2022-12-07T14:14:59;100055.88;;;7.56
23992;BMP280;12205;50.600;4.608;2022-12-07T14:17:29;100041.47;;;7.57
23992;BMP280;12205;50.600;4.608;2022-12-07T14:19:58;100054.00;;;7.56
23992;BMP280;12205;50.600;4.608;2022-12-07T14:22:30;100047.66;;;7.61
23992;BMP280;12205;50.600;4.608;2022-12-07T14:25:17;100045.44;;;7.63
23992;BMP280;12205;50.600;4.608;2022-12-07T14:27:54;100054.28;;;7.67
23992;BMP280;12205;50.600;4.608;2022-12-07T14:30:27;100045.78;;;7.61
23992;BMP280;12205;50.600;4.608;2022-12-07T14:32:58;100038.25;;;7.63
23992;BMP280;12205;50.600;4.608;2022-12-07T14:35:27;100046.34;;;7.54
23992;BMP280;12205;50.600;4.608;2022-12-07T14:37:55;100034.81;;;7.50
23992;BMP280;12205;50.600;4.608;2022-12-07T14:40:25;100026.31;;;7.45
23992;BMP280;12205;50.600;4.608;2022-12-07T14:42:57;100019.00;;;7.54
23992;BMP280;12205;50.600;4.608;2022-12-07T14:45:28;100006.72;;;7.49
23992;BMP280;12205;50.600;4.608;2022-12-07T14:47:55;100010.69;;;7.43
23992;BMP280;12205;50.600;4.608;2022-12-07T14:50:23;100022.91;;;7.32
23992;BMP280;12205;50.600;4.608;2022-12-07T14:52:55;100002.31;;;7.29
23992;BMP280;12205;50.600;4.608;2022-12-07T14:55:26;99980.34;;;7.32
23992;BMP280;12205;50.600;4.608;2022-12-07T14:57:54;99972.03;;;7.33
23992;BMP280;12205;50.600;4.608;2022-12-07T15:00:24;99982.34;;;7.35
23992;BMP280;12205;50.600;4.608;2022-12-07T15:02:53;99984.81;;;7.28
23992;BMP280;12205;50.600;4.608;2022-12-07T15:05:21;99993.28;;;7.17
23992;BMP280;12205;50.600;4.608;2022-12-07T15:07:49;99991.91;;;7.11
23992;BMP280;12205;50.600;4.608;2022-12-07T15:10:21;99982.66;;;7.05
23992;BMP280;12205;50.600;4.608;2022-12-07T15:12:49;99976.19;;;7.06
23992;BMP280;12205;50.600;4.608;2022-12-07T15:15:16;99976.88;;;7.03